sensor_id;sensor_type;location;lat;lon;timestamp;P1;durP1;ratioP1;P2;durP2;ratioP2
24799;SDS011;12897;50.812;4.430;2023-03-01T00:01:29;22.27;;;12.27;;
24799;SDS011;12897;50.812;4.430;2023-03-01T00:03:58;25.67;;;13.33;;
24799;SDS011;12897;50.812;4.430;2023-03-01T00:06:27;23.15;;;12.90;;
24799;SDS011;12897;50.812;4.430;2023-03-01T00:09:04;24.98;;;12.07;;
24799;SDS011;12897;50.812;4.430;2023-03-01T00:11:33;21.70;;;11.73;;
24799;SDS011;12897;50.812;4.430;2023-03-01T00:14:02;27.37;;;12.10;;
24799;SDS011;12897;50.812;4.430;2023-03-01T00:16:35;21.00;;;12.05;;
24799;SDS011;12897;50.812;4.430;2023-03-01T00:19:07;24.52;;;12.82;;
24799;SDS011;12897;50.812;4.430;2023-03-01T00:21:37;21.17;;;12.75;;
24799;SDS011;12897;50.812;4.430;2023-03-01T00:24:18;21.77;;;12.88;;
24799;SDS011;12897;50.812;4.430;2023-03-01T00:26:38;20.05;;;12.78;;
24799;SDS011;12897;50.812;4.430;2023-03-01T00:29:05;21.55;;;12.95;;
24799;SDS011;12897;50.812;4.430;2023-03-01T00:31:33;21.40;;;12.07;;
24799;SDS011;12897;50.812;4.430;2023-03-01T00:34:03;22.58;;;12.70;;
24799;SDS011;12897;50.812;4.430;2023-03-01T00:36:34;22.25;;;12.98;;
24799;SDS011;12897;50.812;4.430;2023-03-01T00:39:05;25.50;;;12.70;;
24799;SDS011;12897;50.812;4.430;2023-03-01T00:41:37;26.90;;;14.38;;
24799;SDS011;12897;50.812;4.430;2023-03-01T00:44:06;26.02;;;14.15;;
24799;SDS011;12897;50.812;4.430;2023-03-01T00:46:33;27.17;;;13.30;;
24799;SDS011;12897;50.812;4.430;2023-03-01T00:49:06;24.95;;;14.23;;
24799;SDS011;12897;50.812;4.430;2023-03-01T00:51:30;21.53;;;13.73;;
24799;SDS011;12897;50.812;4.430;2023-03-01T00:54:01;22.52;;;13.95;;
24799;SDS011;12897;50.812;4.430;2023-03-01T00:56:29;25.72;;;13.93;;
24799;SDS011;12897;50.812;4.430;2023-03-01T00:58:58;23.35;;;13.38;;
24799;SDS011;12897;50.812;4.430;2023-03-01T01:01:26;26.23;;;14.83;;
24799;SDS011;12897;50.812;4.430;2023-03-01T01:04:04;21.73;;;13.08;;
24799;SDS011;12897;50.812;4.430;2023-03-01T01:06:38;25.25;;;14.13;;
24799;SDS011;12897;50.812;4.430;2023-03-01T01:09:09;27.58;;;14.43;;
24799;SDS011;12897;50.812;4.430;2023-03-01T01:11:47;23.73;;;13.55;;
24799;SDS011;12897;50.812;4.430;2023-03-01T01:14:23;29.92;;;14.25;;
24799;SDS011;12897;50.812;4.430;2023-03-01T01:16:51;24.55;;;14.80;;
24799;SDS011;12897;50.812;4.430;2023-03-01T01:19:22;23.05;;;13.53;;
24799;SDS011;12897;50.812;4.430;2023-03-01T01:21:50;28.80;;;13.98;;
24799;SDS011;12897;50.812;4.430;2023-03-01T01:24:26;27.67;;;13.45;;
24799;SDS011;12897;50.812;4.430;2023-03-01T01:26:49;23.73;;;13.20;;
24799;SDS011;12897;50.812;4.430;2023-03-01T01:29:19;21.97;;;13.98;;
24799;SDS011;12897;50.812;4.430;2023-03-01T01:31:49;23.73;;;13.80;;
24799;SDS011;12897;50.812;4.430;2023-03-01T01:34:19;23.40;;;13.15;;
24799;SDS011;12897;50.812;4.430;2023-03-01T01:36:48;31.20;;;14.23;;
24799;SDS011;12897;50.812;4.430;2023-03-01T01:39:18;26.48;;;13.93;;
24799;SDS011;12897;50.812;4.430;2023-03-01T01:41:49;24.00;;;13.10;;
24799;SDS011;12897;50.812;4.430;2023-03-01T01:44:26;23.00;;;13.18;;
24799;SDS011;12897;50.812;4.430;2023-03-01T01:47:02;24.25;;;13.35;;
24799;SDS011;12897;50.812;4.430;2023-03-01T01:49:33;24.15;;;13.65;;
24799;SDS011;12897;50.812;4.430;2023-03-01T01:54:55;19.80;;;13.18;;
24799;SDS011;12897;50.812;4.430;2023-03-01T01:57:48;23.90;;;13.55;;
24799;SDS011;12897;50.812;4.430;2023-03-01T02:02:47;21.77;;;13.93;;
24799;SDS011;12897;50.812;4.430;2023-03-01T02:05:20;21.52;;;13.45;;
24799;SDS011;12897;50.812;4.430;2023-03-01T02:07:48;25.08;;;14.05;;
24799;SDS011;12897;50.812;4.430;2023-03-01T02:10:22;22.37;;;12.73;;
24799;SDS011;12897;50.812;4.430;2023-03-01T02:12:51;21.27;;;13.22;;
24799;SDS011;12897;50.812;4.430;2023-03-01T02:15:24;24.65;;;13.48;;
24799;SDS011;12897;50.812;4.430;2023-03-01T02:17:52;23.32;;;13.98;;
24799;SDS011;12897;50.812;4.430;2023-03-01T02:20:23;21.15;;;13.10;;
24799;SDS011;12897;50.812;4.430;2023-03-01T02:25:34;24.85;;;13.22;;
24799;SDS011;12897;50.812;4.430;2023-03-01T02:30:50;21.68;;;12.98;;
24799;SDS011;12897;50.812;4.430;2023-03-01T02:33:38;21.90;;;13.65;;
24799;SDS011;12897;50.812;4.430;2023-03-01T02:38:41;30.35;;;15.32;;
24799;SDS011;12897;50.812;4.430;2023-03-01T02:41:14;27.65;;;15.60;;
24799;SDS011;12897;50.812;4.430;2023-03-01T02:43:44;28.10;;;14.15;;
24799;SDS011;12897;50.812;4.430;2023-03-01T02:46:25;22.75;;;13.35;;
24799;SDS011;12897;50.812;4.430;2023-03-01T02:48:52;22.20;;;13.18;;
24799;SDS011;12897;50.812;4.430;2023-03-01T02:54:12;29.77;;;13.88;;
24799;SDS011;12897;50.812;4.430;2023-03-01T02:59:16;27.37;;;13.98;;
24799;SDS011;12897;50.812;4.430;2023-03-01T03:01:45;23.27;;;14.10;;
24799;SDS011;12897;50.812;4.430;2023-03-01T03:04:15;21.73;;;13.22;;
24799;SDS011;12897;50.812;4.430;2023-03-01T03:06:48;24.72;;;13.22;;
24799;SDS011;12897;50.812;4.430;2023-03-01T03:09:17;20.52;;;12.85;;
24799;SDS011;12897;50.812;4.430;2023-03-01T03:11:46;25.60;;;13.60;;
24799;SDS011;12897;50.812;4.430;2023-03-01T03:14:14;27.25;;;13.93;;
24799;SDS011;12897;50.812;4.430;2023-03-01T03:16:45;25.65;;;14.10;;
24799;SDS011;12897;50.812;4.430;2023-03-01T03:19:15;27.17;;;14.23;;
24799;SDS011;12897;50.812;4.430;2023-03-01T03:21:44;21.75;;;13.15;;
24799;SDS011;12897;50.812;4.430;2023-03-01T03:24:14;23.38;;;14.10;;
24799;SDS011;12897;50.812;4.430;2023-03-01T03:26:46;23.70;;;13.78;;
24799;SDS011;12897;50.812;4.430;2023-03-01T03:29:10;24.33;;;14.30;;
24799;SDS011;12897;50.812;4.430;2023-03-01T03:31:38;21.23;;;12.73;;
24799;SDS011;12897;50.812;4.430;2023-03-01T03:34:05;23.62;;;13.38;;
24799;SDS011;12897;50.812;4.430;2023-03-01T03:36:33;22.45;;;13.62;;
24799;SDS011;12897;50.812;4.430;2023-03-01T03:39:09;27.13;;;12.65;;
24799;SDS011;12897;50.812;4.430;2023-03-01T03:44:20;25.27;;;13.70;;
24799;SDS011;12897;50.812;4.430;2023-03-01T03:46:50;22.27;;;13.75;;
24799;SDS011;12897;50.812;4.430;2023-03-01T03:49:18;22.75;;;13.05;;
24799;SDS011;12897;50.812;4.430;2023-03-01T03:51:46;22.67;;;12.95;;
24799;SDS011;12897;50.812;4.430;2023-03-01T03:54:13;24.95;;;15.08;;
24799;SDS011;12897;50.812;4.430;2023-03-01T03:56:44;29.10;;;13.53;;
24799;SDS011;12897;50.812;4.430;2023-03-01T03:59:12;24.95;;;13.95;;
24799;SDS011;12897;50.812;4.430;2023-03-01T04:01:39;24.18;;;14.10;;
24799;SDS011;12897;50.812;4.430;2023-03-01T04:04:08;27.27;;;13.40;;
24799;SDS011;12897;50.812;4.430;2023-03-01T04:06:40;20.88;;;13.60;;
24799;SDS011;12897;50.812;4.430;2023-03-01T04:09:07;21.17;;;13.08;;
24799;SDS011;12897;50.812;4.430;2023-03-01T04:11:35;28.45;;;13.65;;
24799;SDS011;12897;50.812;4.430;2023-03-01T04:14:09;26.82;;;13.38;;
24799;SDS011;12897;50.812;4.430;2023-03-01T04:16:35;24.35;;;13.22;;
24799;SDS011;12897;50.812;4.430;2023-03-01T04:19:02;24.63;;;12.95;;
24799;SDS011;12897;50.812;4.430;2023-03-01T04:21:34;22.75;;;12.13;;
24799;SDS011;12897;50.812;4.430;2023-03-01T04:24:01;27.48;;;12.88;;
24799;SDS011;12897;50.812;4.430;2023-03-01T04:26:29;22.13;;;12.20;;
24799;SDS011;12897;50.812;4.430;2023-03-01T04:28:58;20.37;;;12.90;;
24799;SDS011;12897;50.812;4.430;2023-03-01T04:31:41;23.90;;;12.78;;
24799;SDS011;12897;50.812;4.430;2023-03-01T04:34:12;22.02;;;12.10;;
24799;SDS011;12897;50.812;4.430;2023-03-01T04:36:44;25.57;;;13.40;;
24799;SDS011;12897;50.812;4.430;2023-03-01T04:39:12;19.90;;;12.98;;
24799;SDS011;12897;50.812;4.430;2023-03-01T04:41:39;22.42;;;12.58;;
24799;SDS011;12897;50.812;4.430;2023-03-01T04:44:09;24.17;;;12.43;;
24799;SDS011;12897;50.812;4.430;2023-03-01T04:46:42;25.40;;;12.43;;
24799;SDS011;12897;50.812;4.430;2023-03-01T04:49:10;20.68;;;12.85;;
24799;SDS011;12897;50.812;4.430;2023-03-01T04:51:39;21.80;;;12.35;;
24799;SDS011;12897;50.812;4.430;2023-03-01T04:54:08;17.98;;;11.95;;
24799;SDS011;12897;50.812;4.430;2023-03-01T04:56:38;23.15;;;12.55;;
24799;SDS011;12897;50.812;4.430;2023-03-01T04:59:06;24.90;;;12.68;;
24799;SDS011;12897;50.812;4.430;2023-03-01T05:01:35;21.57;;;12.73;;
24799;SDS011;12897;50.812;4.430;2023-03-01T05:04:04;19.57;;;11.95;;
24799;SDS011;12897;50.812;4.430;2023-03-01T05:06:32;20.35;;;12.93;;
24799;SDS011;12897;50.812;4.430;2023-03-01T05:09:01;20.90;;;11.93;;
24799;SDS011;12897;50.812;4.430;2023-03-01T05:11:29;24.00;;;13.85;;
24799;SDS011;12897;50.812;4.430;2023-03-01T05:13:59;22.40;;;13.08;;
24799;SDS011;12897;50.812;4.430;2023-03-01T05:16:26;22.95;;;12.75;;
24799;SDS011;12897;50.812;4.430;2023-03-01T05:18:59;24.05;;;13.30;;
24799;SDS011;12897;50.812;4.430;2023-03-01T05:21:30;21.97;;;12.43;;
24799;SDS011;12897;50.812;4.430;2023-03-01T05:26:35;20.30;;;12.68;;
24799;SDS011;12897;50.812;4.430;2023-03-01T05:29:06;24.02;;;13.18;;
24799;SDS011;12897;50.812;4.430;2023-03-01T05:31:35;23.05;;;12.98;;
24799;SDS011;12897;50.812;4.430;2023-03-01T05:34:04;24.67;;;12.43;;
24799;SDS011;12897;50.812;4.430;2023-03-01T05:36:34;22.32;;;13.38;;
24799;SDS011;12897;50.812;4.430;2023-03-01T05:39:01;20.50;;;12.82;;
24799;SDS011;12897;50.812;4.430;2023-03-01T05:41:30;23.32;;;13.00;;
24799;SDS011;12897;50.812;4.430;2023-03-01T05:43:58;24.35;;;12.65;;
24799;SDS011;12897;50.812;4.430;2023-03-01T05:46:26;20.72;;;13.05;;
24799;SDS011;12897;50.812;4.430;2023-03-01T05:48:58;22.98;;;12.75;;
24799;SDS011;12897;50.812;4.430;2023-03-01T05:51:26;28.83;;;12.77;;
24799;SDS011;12897;50.812;4.430;2023-03-01T05:53:55;23.67;;;12.40;;
24799;SDS011;12897;50.812;4.430;2023-03-01T05:56:24;20.03;;;12.77;;
24799;SDS011;12897;50.812;4.430;2023-03-01T05:58:53;24.17;;;11.63;;
24799;SDS011;12897;50.812;4.430;2023-03-01T06:01:24;25.37;;;12.70;;
24799;SDS011;12897;50.812;4.430;2023-03-01T06:03:51;24.70;;;12.28;;
24799;SDS011;12897;50.812;4.430;2023-03-01T06:06:19;23.20;;;11.93;;
24799;SDS011;12897;50.812;4.430;2023-03-01T06:08:47;22.55;;;12.82;;
24799;SDS011;12897;50.812;4.430;2023-03-01T06:11:17;25.05;;;13.55;;
24799;SDS011;12897;50.812;4.430;2023-03-01T06:13:47;24.60;;;12.78;;
24799;SDS011;12897;50.812;4.430;2023-03-01T06:16:14;20.30;;;11.83;;
24799;SDS011;12897;50.812;4.430;2023-03-01T06:18:42;26.20;;;12.47;;
24799;SDS011;12897;50.812;4.430;2023-03-01T06:21:10;23.62;;;12.95;;
24799;SDS011;12897;50.812;4.430;2023-03-01T06:23:39;24.45;;;13.28;;
24799;SDS011;12897;50.812;4.430;2023-03-01T06:26:07;20.43;;;11.97;;
24799;SDS011;12897;50.812;4.430;2023-03-01T06:28:36;25.68;;;13.35;;
24799;SDS011;12897;50.812;4.430;2023-03-01T06:31:03;26.77;;;13.35;;
24799;SDS011;12897;50.812;4.430;2023-03-01T06:33:33;22.45;;;12.30;;
24799;SDS011;12897;50.812;4.430;2023-03-01T06:36:07;28.90;;;13.22;;
24799;SDS011;12897;50.812;4.430;2023-03-01T06:38:37;42.75;;;13.75;;
24799;SDS011;12897;50.812;4.430;2023-03-01T06:41:13;35.33;;;12.35;;
24799;SDS011;12897;50.812;4.430;2023-03-01T06:43:41;30.05;;;12.73;;
24799;SDS011;12897;50.812;4.430;2023-03-01T06:46:11;25.75;;;12.00;;
24799;SDS011;12897;50.812;4.430;2023-03-01T06:48:38;37.35;;;13.03;;
24799;SDS011;12897;50.812;4.430;2023-03-01T06:51:09;25.27;;;13.03;;
24799;SDS011;12897;50.812;4.430;2023-03-01T06:53:43;35.03;;;13.03;;
24799;SDS011;12897;50.812;4.430;2023-03-01T06:56:22;23.57;;;12.58;;
24799;SDS011;12897;50.812;4.430;2023-03-01T06:58:49;25.75;;;13.30;;
24799;SDS011;12897;50.812;4.430;2023-03-01T07:01:19;27.90;;;13.75;;
24799;SDS011;12897;50.812;4.430;2023-03-01T07:03:51;30.40;;;13.70;;
24799;SDS011;12897;50.812;4.430;2023-03-01T07:06:25;28.25;;;13.90;;
24799;SDS011;12897;50.812;4.430;2023-03-01T07:08:54;29.90;;;14.38;;
24799;SDS011;12897;50.812;4.430;2023-03-01T07:13:55;26.23;;;13.80;;
24799;SDS011;12897;50.812;4.430;2023-03-01T07:16:26;26.00;;;13.53;;
24799;SDS011;12897;50.812;4.430;2023-03-01T07:18:54;24.98;;;13.83;;
24799;SDS011;12897;50.812;4.430;2023-03-01T07:21:25;23.62;;;12.68;;
24799;SDS011;12897;50.812;4.430;2023-03-01T07:23:56;27.85;;;13.45;;
24799;SDS011;12897;50.812;4.430;2023-03-01T07:26:43;26.23;;;13.88;;
24799;SDS011;12897;50.812;4.430;2023-03-01T07:29:27;25.97;;;12.93;;
24799;SDS011;12897;50.812;4.430;2023-03-01T07:34:45;20.70;;;13.15;;
24799;SDS011;12897;50.812;4.430;2023-03-01T07:37:15;27.77;;;12.80;;
24799;SDS011;12897;50.812;4.430;2023-03-01T07:40:19;24.52;;;12.93;;
24799;SDS011;12897;50.812;4.430;2023-03-01T07:45:23;24.27;;;12.13;;
24799;SDS011;12897;50.812;4.430;2023-03-01T07:47:56;32.53;;;12.43;;
24799;SDS011;12897;50.812;4.430;2023-03-01T07:59:21;22.17;;;13.55;;
24799;SDS011;12897;50.812;4.430;2023-03-01T08:02:45;25.75;;;12.60;;
24799;SDS011;12897;50.812;4.430;2023-03-01T08:04:44;28.07;;;13.70;;
24799;SDS011;12897;50.812;4.430;2023-03-01T08:07:14;24.67;;;13.50;;
24799;SDS011;12897;50.812;4.430;2023-03-01T08:09:45;25.25;;;13.45;;
24799;SDS011;12897;50.812;4.430;2023-03-01T08:12:17;22.87;;;13.05;;
24799;SDS011;12897;50.812;4.430;2023-03-01T08:17:42;22.90;;;13.53;;
24799;SDS011;12897;50.812;4.430;2023-03-01T08:20:07;23.62;;;12.55;;
24799;SDS011;12897;50.812;4.430;2023-03-01T08:22:48;23.83;;;12.68;;
24799;SDS011;12897;50.812;4.430;2023-03-01T08:25:24;22.52;;;12.88;;
24799;SDS011;12897;50.812;4.430;2023-03-01T08:27:59;22.62;;;13.28;;
24799;SDS011;12897;50.812;4.430;2023-03-01T08:36:24;23.67;;;13.13;;
24799;SDS011;12897;50.812;4.430;2023-03-01T08:38:59;23.15;;;13.15;;
24799;SDS011;12897;50.812;4.430;2023-03-01T08:41:34;28.38;;;13.85;;
24799;SDS011;12897;50.812;4.430;2023-03-01T08:44:03;21.95;;;12.05;;
24799;SDS011;12897;50.812;4.430;2023-03-01T08:49:46;27.07;;;13.95;;
24799;SDS011;12897;50.812;4.430;2023-03-01T08:52:01;26.33;;;14.07;;
24799;SDS011;12897;50.812;4.430;2023-03-01T08:54:37;19.85;;;12.35;;
24799;SDS011;12897;50.812;4.430;2023-03-01T08:57:12;23.98;;;13.50;;
24799;SDS011;12897;50.812;4.430;2023-03-01T08:59:53;22.40;;;12.55;;
24799;SDS011;12897;50.812;4.430;2023-03-01T09:02:27;25.62;;;13.45;;
24799;SDS011;12897;50.812;4.430;2023-03-01T09:05:05;22.62;;;11.50;;
24799;SDS011;12897;50.812;4.430;2023-03-01T09:08:04;21.30;;;12.40;;
24799;SDS011;12897;50.812;4.430;2023-03-01T09:13:23;28.25;;;13.40;;
24799;SDS011;12897;50.812;4.430;2023-03-01T09:16:00;22.67;;;12.82;;
24799;SDS011;12897;50.812;4.430;2023-03-01T09:18:33;22.62;;;12.33;;
24799;SDS011;12897;50.812;4.430;2023-03-01T09:23:51;25.75;;;13.93;;
24799;SDS011;12897;50.812;4.430;2023-03-01T09:31:40;27.15;;;13.28;;
24799;SDS011;12897;50.812;4.430;2023-03-01T09:34:26;23.55;;;12.53;;
24799;SDS011;12897;50.812;4.430;2023-03-01T09:37:10;25.35;;;13.65;;
24799;SDS011;12897;50.812;4.430;2023-03-01T09:39:46;25.57;;;14.03;;
24799;SDS011;12897;50.812;4.430;2023-03-01T09:42:28;24.98;;;13.30;;
24799;SDS011;12897;50.812;4.430;2023-03-01T09:47:52;28.85;;;13.95;;
24799;SDS011;12897;50.812;4.430;2023-03-01T09:50:41;23.65;;;13.95;;
24799;SDS011;12897;50.812;4.430;2023-03-01T09:59:09;26.35;;;13.50;;
24799;SDS011;12897;50.812;4.430;2023-03-01T10:15:44;22.35;;;14.68;;
24799;SDS011;12897;50.812;4.430;2023-03-01T10:18:16;24.02;;;15.03;;
24799;SDS011;12897;50.812;4.430;2023-03-01T10:20:59;29.23;;;14.45;;
24799;SDS011;12897;50.812;4.430;2023-03-01T10:23:43;30.50;;;15.63;;
24799;SDS011;12897;50.812;4.430;2023-03-01T10:29:12;25.55;;;15.13;;
24799;SDS011;12897;50.812;4.430;2023-03-01T10:34:41;25.50;;;12.88;;
24799;SDS011;12897;50.812;4.430;2023-03-01T10:37:15;25.32;;;15.15;;
24799;SDS011;12897;50.812;4.430;2023-03-01T10:40:09;25.57;;;13.45;;
24799;SDS011;12897;50.812;4.430;2023-03-01T10:42:53;26.50;;;14.28;;
24799;SDS011;12897;50.812;4.430;2023-03-01T10:45:37;30.55;;;15.53;;
24799;SDS011;12897;50.812;4.430;2023-03-01T10:48:25;24.87;;;15.00;;
24799;SDS011;12897;50.812;4.430;2023-03-01T10:53:41;28.65;;;14.55;;
24799;SDS011;12897;50.812;4.430;2023-03-01T10:56:12;27.70;;;15.13;;
24799;SDS011;12897;50.812;4.430;2023-03-01T10:58:56;26.55;;;15.35;;
24799;SDS011;12897;50.812;4.430;2023-03-01T11:01:27;25.32;;;13.90;;
24799;SDS011;12897;50.812;4.430;2023-03-01T11:04:10;24.95;;;12.78;;
24799;SDS011;12897;50.812;4.430;2023-03-01T11:06:34;27.35;;;13.68;;
24799;SDS011;12897;50.812;4.430;2023-03-01T11:09:17;27.85;;;14.68;;
24799;SDS011;12897;50.812;4.430;2023-03-01T11:11:45;26.12;;;14.47;;
24799;SDS011;12897;50.812;4.430;2023-03-01T11:14:22;26.73;;;13.75;;
24799;SDS011;12897;50.812;4.430;2023-03-01T11:17:02;23.70;;;13.62;;
24799;SDS011;12897;50.812;4.430;2023-03-01T11:19:31;20.37;;;13.18;;
24799;SDS011;12897;50.812;4.430;2023-03-01T11:22:00;26.77;;;13.95;;
24799;SDS011;12897;50.812;4.430;2023-03-01T11:24:34;22.02;;;13.62;;
24799;SDS011;12897;50.812;4.430;2023-03-01T11:27:01;26.25;;;12.37;;
24799;SDS011;12897;50.812;4.430;2023-03-01T11:29:35;18.40;;;10.68;;
24799;SDS011;12897;50.812;4.430;2023-03-01T11:32:06;24.75;;;13.32;;
24799;SDS011;12897;50.812;4.430;2023-03-01T11:35:37;23.07;;;11.35;;
24799;SDS011;12897;50.812;4.430;2023-03-01T11:37:35;18.52;;;10.43;;
24799;SDS011;12897;50.812;4.430;2023-03-01T11:43:08;20.23;;;13.15;;
24799;SDS011;12897;50.812;4.430;2023-03-01T11:45:43;21.35;;;11.10;;
24799;SDS011;12897;50.812;4.430;2023-03-01T11:51:02;23.05;;;12.98;;
24799;SDS011;12897;50.812;4.430;2023-03-01T11:53:34;23.52;;;12.53;;
24799;SDS011;12897;50.812;4.430;2023-03-01T11:56:10;24.05;;;13.50;;
24799;SDS011;12897;50.812;4.430;2023-03-01T12:01:56;20.37;;;10.08;;
24799;SDS011;12897;50.812;4.430;2023-03-01T12:04:42;20.37;;;11.83;;
24799;SDS011;12897;50.812;4.430;2023-03-01T12:07:37;21.30;;;12.15;;
24799;SDS011;12897;50.812;4.430;2023-03-01T12:26:40;26.02;;;11.97;;
24799;SDS011;12897;50.812;4.430;2023-03-01T12:29:15;23.75;;;12.28;;
24799;SDS011;12897;50.812;4.430;2023-03-01T12:37:17;18.55;;;10.43;;
24799;SDS011;12897;50.812;4.430;2023-03-01T12:39:55;21.52;;;10.60;;
24799;SDS011;12897;50.812;4.430;2023-03-01T12:42:30;20.10;;;11.75;;
24799;SDS011;12897;50.812;4.430;2023-03-01T12:51:06;19.52;;;11.88;;
24799;SDS011;12897;50.812;4.430;2023-03-01T12:53:39;19.67;;;10.60;;
24799;SDS011;12897;50.812;4.430;2023-03-01T12:56:10;16.50;;;9.43;;
24799;SDS011;12897;50.812;4.430;2023-03-01T12:58:46;20.17;;;10.82;;
24799;SDS011;12897;50.812;4.430;2023-03-01T13:06:38;17.35;;;10.30;;
24799;SDS011;12897;50.812;4.430;2023-03-01T13:09:14;17.10;;;9.23;;
24799;SDS011;12897;50.812;4.430;2023-03-01T13:11:42;18.92;;;9.75;;
24799;SDS011;12897;50.812;4.430;2023-03-01T13:16:52;21.45;;;10.98;;
24799;SDS011;12897;50.812;4.430;2023-03-01T13:19:21;23.95;;;11.83;;
24799;SDS011;12897;50.812;4.430;2023-03-01T13:21:52;16.65;;;9.15;;
24799;SDS011;12897;50.812;4.430;2023-03-01T13:24:37;17.82;;;9.88;;
24799;SDS011;12897;50.812;4.430;2023-03-01T13:29:50;23.02;;;9.85;;
24799;SDS011;12897;50.812;4.430;2023-03-01T13:34:56;19.60;;;10.95;;
24799;SDS011;12897;50.812;4.430;2023-03-01T13:37:30;21.37;;;10.72;;
24799;SDS011;12897;50.812;4.430;2023-03-01T13:40:00;17.70;;;10.58;;
24799;SDS011;12897;50.812;4.430;2023-03-01T13:42:31;18.85;;;10.40;;
24799;SDS011;12897;50.812;4.430;2023-03-01T13:45:05;18.70;;;10.50;;
24799;SDS011;12897;50.812;4.430;2023-03-01T13:47:44;17.70;;;10.20;;
24799;SDS011;12897;50.812;4.430;2023-03-01T13:50:19;17.85;;;10.82;;
24799;SDS011;12897;50.812;4.430;2023-03-01T13:52:50;18.00;;;8.88;;
24799;SDS011;12897;50.812;4.430;2023-03-01T13:55:23;21.23;;;10.13;;
24799;SDS011;12897;50.812;4.430;2023-03-01T13:57:57;18.50;;;9.13;;
24799;SDS011;12897;50.812;4.430;2023-03-01T14:00:27;24.72;;;10.95;;
24799;SDS011;12897;50.812;4.430;2023-03-01T14:03:00;20.00;;;9.98;;
24799;SDS011;12897;50.812;4.430;2023-03-01T14:07:57;16.30;;;9.48;;
24799;SDS011;12897;50.812;4.430;2023-03-01T14:10:30;18.45;;;10.45;;
24799;SDS011;12897;50.812;4.430;2023-03-01T14:13:04;17.35;;;10.80;;
24799;SDS011;12897;50.812;4.430;2023-03-01T14:15:47;17.60;;;10.93;;
24799;SDS011;12897;50.812;4.430;2023-03-01T14:18:25;15.03;;;9.20;;
24799;SDS011;12897;50.812;4.430;2023-03-01T14:20:47;22.02;;;10.25;;
24799;SDS011;12897;50.812;4.430;2023-03-01T14:23:20;20.02;;;10.55;;
24799;SDS011;12897;50.812;4.430;2023-03-01T14:25:53;20.32;;;10.65;;
24799;SDS011;12897;50.812;4.430;2023-03-01T14:28:24;17.75;;;9.50;;
24799;SDS011;12897;50.812;4.430;2023-03-01T14:30:55;18.52;;;11.55;;
24799;SDS011;12897;50.812;4.430;2023-03-01T14:33:35;18.30;;;10.82;;
24799;SDS011;12897;50.812;4.430;2023-03-01T14:36:08;22.30;;;11.08;;
24799;SDS011;12897;50.812;4.430;2023-03-01T14:38:38;20.48;;;11.00;;
24799;SDS011;12897;50.812;4.430;2023-03-01T14:41:20;18.77;;;10.25;;
24799;SDS011;12897;50.812;4.430;2023-03-01T14:43:55;16.25;;;10.45;;
24799;SDS011;12897;50.812;4.430;2023-03-01T14:46:24;17.52;;;10.38;;
24799;SDS011;12897;50.812;4.430;2023-03-01T14:48:53;20.30;;;10.53;;
24799;SDS011;12897;50.812;4.430;2023-03-01T14:51:23;15.72;;;10.10;;
24799;SDS011;12897;50.812;4.430;2023-03-01T14:53:50;15.90;;;9.95;;
24799;SDS011;12897;50.812;4.430;2023-03-01T14:56:19;22.67;;;11.33;;
24799;SDS011;12897;50.812;4.430;2023-03-01T14:58:50;16.62;;;10.03;;
24799;SDS011;12897;50.812;4.430;2023-03-01T15:01:19;17.32;;;10.15;;
24799;SDS011;12897;50.812;4.430;2023-03-01T15:03:48;17.70;;;10.53;;
24799;SDS011;12897;50.812;4.430;2023-03-01T15:06:21;18.25;;;10.40;;
24799;SDS011;12897;50.812;4.430;2023-03-01T15:08:48;19.82;;;10.85;;
24799;SDS011;12897;50.812;4.430;2023-03-01T15:11:21;24.43;;;9.98;;
24799;SDS011;12897;50.812;4.430;2023-03-01T15:13:50;17.98;;;10.08;;
24799;SDS011;12897;50.812;4.430;2023-03-01T15:16:21;20.95;;;10.95;;
24799;SDS011;12897;50.812;4.430;2023-03-01T15:19:14;21.17;;;11.60;;
24799;SDS011;12897;50.812;4.430;2023-03-01T15:21:24;19.27;;;10.38;;
24799;SDS011;12897;50.812;4.430;2023-03-01T15:24:06;18.98;;;10.68;;
24799;SDS011;12897;50.812;4.430;2023-03-01T15:26:56;18.35;;;10.18;;
24799;SDS011;12897;50.812;4.430;2023-03-01T15:29:24;18.15;;;11.15;;
24799;SDS011;12897;50.812;4.430;2023-03-01T15:31:56;17.57;;;10.58;;
24799;SDS011;12897;50.812;4.430;2023-03-01T15:34:27;16.87;;;9.95;;
24799;SDS011;12897;50.812;4.430;2023-03-01T15:37:00;23.90;;;10.88;;
24799;SDS011;12897;50.812;4.430;2023-03-01T15:39:40;18.82;;;10.63;;
24799;SDS011;12897;50.812;4.430;2023-03-01T15:42:11;22.22;;;10.55;;
24799;SDS011;12897;50.812;4.430;2023-03-01T15:44:41;15.98;;;9.80;;
24799;SDS011;12897;50.812;4.430;2023-03-01T15:47:27;23.98;;;9.88;;
24799;SDS011;12897;50.812;4.430;2023-03-01T15:49:58;16.85;;;10.10;;
24799;SDS011;12897;50.812;4.430;2023-03-01T15:52:28;16.42;;;9.43;;
24799;SDS011;12897;50.812;4.430;2023-03-01T15:54:59;21.20;;;10.80;;
24799;SDS011;12897;50.812;4.430;2023-03-01T15:57:29;16.32;;;10.15;;
24799;SDS011;12897;50.812;4.430;2023-03-01T15:59:57;19.30;;;10.03;;
24799;SDS011;12897;50.812;4.430;2023-03-01T16:02:24;16.50;;;9.93;;
24799;SDS011;12897;50.812;4.430;2023-03-01T16:04:52;17.12;;;9.95;;
24799;SDS011;12897;50.812;4.430;2023-03-01T16:07:21;16.25;;;9.80;;
24799;SDS011;12897;50.812;4.430;2023-03-01T16:09:48;18.65;;;9.50;;
24799;SDS011;12897;50.812;4.430;2023-03-01T16:12:16;17.40;;;9.50;;
24799;SDS011;12897;50.812;4.430;2023-03-01T16:14:45;20.90;;;10.18;;
24799;SDS011;12897;50.812;4.430;2023-03-01T16:17:14;23.73;;;9.70;;
24799;SDS011;12897;50.812;4.430;2023-03-01T16:19:41;17.50;;;10.18;;
24799;SDS011;12897;50.812;4.430;2023-03-01T16:22:10;15.80;;;9.58;;
24799;SDS011;12897;50.812;4.430;2023-03-01T16:24:37;17.37;;;9.73;;
24799;SDS011;12897;50.812;4.430;2023-03-01T16:27:07;15.23;;;9.03;;
24799;SDS011;12897;50.812;4.430;2023-03-01T16:29:34;15.35;;;8.55;;
24799;SDS011;12897;50.812;4.430;2023-03-01T16:32:02;15.98;;;8.78;;
24799;SDS011;12897;50.812;4.430;2023-03-01T16:34:30;16.67;;;8.25;;
24799;SDS011;12897;50.812;4.430;2023-03-01T16:36:58;17.23;;;8.63;;
24799;SDS011;12897;50.812;4.430;2023-03-01T16:39:25;13.62;;;8.35;;
24799;SDS011;12897;50.812;4.430;2023-03-01T16:41:53;15.58;;;9.35;;
24799;SDS011;12897;50.812;4.430;2023-03-01T16:44:20;15.85;;;8.53;;
24799;SDS011;12897;50.812;4.430;2023-03-01T16:46:48;17.17;;;9.13;;
24799;SDS011;12897;50.812;4.430;2023-03-01T16:49:15;12.98;;;9.03;;
24799;SDS011;12897;50.812;4.430;2023-03-01T16:51:44;15.95;;;8.63;;
24799;SDS011;12897;50.812;4.430;2023-03-01T16:54:11;18.73;;;8.78;;
24799;SDS011;12897;50.812;4.430;2023-03-01T16:56:39;16.27;;;8.90;;
24799;SDS011;12897;50.812;4.430;2023-03-01T16:59:06;13.58;;;8.40;;
24799;SDS011;12897;50.812;4.430;2023-03-01T17:01:34;13.70;;;8.85;;
24799;SDS011;12897;50.812;4.430;2023-03-01T17:04:03;16.93;;;9.07;;
24799;SDS011;12897;50.812;4.430;2023-03-01T17:06:31;13.25;;;8.50;;
24799;SDS011;12897;50.812;4.430;2023-03-01T17:08:58;15.23;;;8.78;;
24799;SDS011;12897;50.812;4.430;2023-03-01T17:11:26;11.93;;;7.80;;
24799;SDS011;12897;50.812;4.430;2023-03-01T17:13:54;16.00;;;8.90;;
24799;SDS011;12897;50.812;4.430;2023-03-01T17:16:21;13.30;;;8.00;;
24799;SDS011;12897;50.812;4.430;2023-03-01T17:18:49;13.58;;;8.55;;